Time;durP1;ratioP1;P1;durP2;ratioP2;P2;SDS_P1;SDS_P2;PMS_P1;PMS_P2;Temp;Humidity;BMP_temperature;BMP_pressure;BME280_temperature;BME280_humidity;BME280_pressure;Samples;Min_cycle;Max_cycle;Signal;HPM_P1;HPM_P2
2021/03/20 00:02:13;;;;;;;1999.90;999.90;;;4.00;92.50;;;;;;5001570;28;20560;-70
2021/03/20 00:04:40;;;;;;;1999.90;999.90;;;4.00;92.40;;;;;;4986886;28;20423;-70
2021/03/20 00:07:06;;;;;;;1999.90;999.90;;;4.00;92.50;;;;;;4998774;28;20050;-70
2021/03/20 00:09:32;;;;;;;1999.90;999.90;;;3.90;92.50;;;;;;5004221;28;20080;-70
2021/03/20 00:12:00;;;;;;;1999.90;999.90;;;3.90;92.40;;;;;;5078373;28;20042;-70
2021/03/20 00:14:27;;;;;;;1999.90;999.90;;;3.90;92.40;;;;;;4997880;28;20360;-69
2021/03/20 00:16:53;;;;;;;1999.90;999.90;;;3.90;92.40;;;;;;5004340;28;20133;-70
2021/03/20 00:19:21;;;;;;;1999.90;999.90;;;3.90;92.40;;;;;;4991266;28;20443;-70
2021/03/20 00:21:47;;;;;;;1999.90;999.90;;;3.80;92.40;;;;;;5002945;28;20213;-70
2021/03/20 00:24:14;;;;;;;1999.90;999.90;;;3.80;92.40;;;;;;4996111;28;20077;-70
2021/03/20 00:26:40;;;;;;;1999.90;999.90;;;3.80;92.40;;;;;;5026322;28;20045;-70
2021/03/20 00:29:07;;;;;;;1999.90;999.90;;;3.70;92.40;;;;;;5008385;28;20401;-70
2021/03/20 00:31:33;;;;;;;1999.90;999.90;;;3.70;92.40;;;;;;4993714;28;20137;-70
2021/03/20 00:33:59;;;;;;;1999.90;999.90;;;3.60;92.40;;;;;;4994939;28;20061;-70
2021/03/20 00:36:26;;;;;;;1999.90;999.90;;;3.60;92.40;;;;;;5034479;28;20457;-70
2021/03/20 00:39:07;;;;;;;1999.90;999.90;;;3.60;92.30;;;;;;4986556;28;20127;-70
2021/03/20 00:41:35;;;;;;;1999.90;999.90;;;3.60;92.30;;;;;;5005066;28;20133;-70
2021/03/20 00:44:02;;;;;;;1999.90;999.90;;;3.60;92.40;;;;;;5004449;28;20133;-70
2021/03/20 00:46:28;;;;;;;1999.90;999.90;;;3.50;92.30;;;;;;5016750;28;20049;-70
2021/03/20 00:48:55;;;;;;;1999.90;999.90;;;3.50;92.30;;;;;;4989826;28;20096;-70
2021/03/20 00:51:21;;;;;;;1999.90;999.90;;;3.50;92.30;;;;;;5001361;28;20049;-70
2021/03/20 00:53:47;;;;;;;1999.90;999.90;;;3.50;92.40;;;;;;5016118;28;20050;-70
2021/03/20 00:56:14;;;;;;;1999.90;999.90;;;3.40;92.30;;;;;;5010587;28;20741;-70
2021/03/20 00:58:43;;;;;;;1999.90;999.90;;;3.40;92.30;;;;;;5015454;28;20042;-70
2021/03/20 01:01:17;;;;;;;1999.90;999.90;;;3.40;92.30;;;;;;5009858;28;20048;-70
2021/03/20 01:03:45;;;;;;;1999.90;999.90;;;3.30;92.30;;;;;;5007483;28;20053;-70
2021/03/20 01:06:16;;;;;;;1999.90;999.90;;;3.30;92.60;;;;;;5002812;28;20050;-70
2021/03/20 01:08:43;;;;;;;1999.90;999.90;;;3.30;92.30;;;;;;5008020;28;20056;-70
2021/03/20 01:11:12;;;;;;;1999.90;999.90;;;3.30;92.30;;;;;;4995542;28;20049;-69
2021/03/20 01:13:38;;;;;;;1999.90;999.90;;;3.20;92.40;;;;;;5011293;28;20408;-70
2021/03/20 01:16:06;;;;;;;1999.90;999.90;;;3.20;92.30;;;;;;5015162;28;20042;-70
2021/03/20 01:18:33;;;;;;;1999.90;999.90;;;3.20;92.40;;;;;;4997097;28;20128;-70
2021/03/20 01:20:59;;;;;;;1999.90;999.90;;;3.20;92.40;;;;;;5002670;28;20046;-70
2021/03/20 01:23:25;;;;;;;1999.90;999.90;;;3.20;92.40;;;;;;5017743;28;20042;-70
2021/03/20 01:25:52;;;;;;;1999.90;999.90;;;3.10;92.40;;;;;;4990746;28;20050;-70
2021/03/20 01:28:23;;;;;;;1999.90;999.90;;;3.10;92.40;;;;;;5018416;28;20049;-70
2021/03/20 01:30:49;;;;;;;1999.90;999.90;;;3.10;92.40;;;;;;5012115;28;20415;-70
2021/03/20 01:33:15;;;;;;;1999.90;999.90;;;3.10;92.70;;;;;;4991764;28;20050;-70
2021/03/20 01:35:42;;;;;;;1999.90;999.90;;;3.10;92.40;;;;;;5009194;28;20042;-70
2021/03/20 01:38:09;;;;;;;1999.90;999.90;;;3.10;92.40;;;;;;5003481;28;20060;-70
2021/03/20 01:40:45;;;;;;;1999.90;999.90;;;3.10;92.40;;;;;;5025328;28;20115;-70
2021/03/20 01:43:13;;;;;;;1999.90;999.90;;;3.00;92.40;;;;;;5007313;28;20136;-70
2021/03/20 01:45:40;;;;;;;1999.90;999.90;;;3.00;92.40;;;;;;5010288;28;20042;-70
2021/03/20 01:48:12;;;;;;;1999.90;999.90;;;2.90;92.30;;;;;;5008630;28;20133;-70
2021/03/20 01:50:50;;;;;;;1999.90;999.90;;;2.90;92.30;;;;;;5007407;28;20408;-70
2021/03/20 01:53:34;;;;;;;1999.90;999.90;;;2.90;92.30;;;;;;5007875;28;20488;-70
2021/03/20 01:56:02;;;;;;;1999.90;999.90;;;2.80;92.30;;;;;;4994726;28;20475;-70
2021/03/20 01:58:30;;;;;;;1999.90;999.90;;;2.80;92.20;;;;;;4984712;28;20056;-71
2021/03/20 02:01:05;;;;;;;1999.90;999.90;;;2.70;92.20;;;;;;5004821;28;20038;-69
2021/03/20 02:03:32;;;;;;;1999.90;999.90;;;2.70;92.20;;;;;;5004854;28;20059;-70
2021/03/20 02:06:00;;;;;;;1999.90;999.90;;;2.60;92.20;;;;;;5006771;28;20056;-70
2021/03/20 02:08:27;;;;;;;1999.90;999.90;;;2.60;92.20;;;;;;5009592;28;20054;-70
2021/03/20 02:11:04;;;;;;;1999.90;999.90;;;2.50;92.20;;;;;;5002823;28;20572;-70
2021/03/20 02:13:39;;;;;;;1999.90;999.90;;;2.50;92.20;;;;;;4993883;28;20046;-70
2021/03/20 02:16:28;;;;;;;1999.90;999.90;;;2.40;92.20;;;;;;4989367;28;20801;-70
2021/03/20 02:19:26;;;;;;;1999.90;999.90;;;2.40;92.20;;;;;;5008578;28;20057;-70
2021/03/20 02:22:00;;;;;;;1999.90;999.90;;;2.30;92.20;;;;;;5015203;28;20046;-70
2021/03/20 02:24:45;;;;;;;1999.90;999.90;;;2.30;92.20;;;;;;4989782;28;20056;-69
2021/03/20 02:27:30;;;;;;;1999.90;999.90;;;2.30;92.20;;;;;;5005429;28;20046;-70
2021/03/20 02:30:09;;;;;;;1999.90;999.90;;;2.20;92.20;;;;;;5012996;28;20137;-70
2021/03/20 02:33:03;;;;;;;1999.90;999.90;;;2.20;92.20;;;;;;5003421;28;20046;-69
2021/03/20 02:35:32;;;;;;;1999.90;999.90;;;2.20;92.20;;;;;;4993110;28;20060;-70
2021/03/20 02:38:17;;;;;;;1999.90;999.90;;;2.20;92.20;;;;;;4991213;28;20045;-70
2021/03/20 02:41:02;;;;;;;1999.90;999.90;;;2.10;92.10;;;;;;4993099;28;20050;-70
2021/03/20 02:43:47;;;;;;;1999.90;999.90;;;2.10;92.10;;;;;;5083895;27;20042;-70
2021/03/20 02:46:21;;;;;;;1999.90;999.90;;;2.00;92.10;;;;;;5006182;28;20046;-69
2021/03/20 02:49:22;;;;;;;1999.90;999.90;;;2.00;92.10;;;;;;5006939;28;20046;-70
2021/03/20 02:51:55;;;;;;;1999.90;999.90;;;2.00;92.10;;;;;;5012744;28;20061;-70
2021/03/20 02:54:41;;;;;;;1999.90;999.90;;;2.00;92.10;;;;;;5010853;28;20400;-69
2021/03/20 02:57:25;;;;;;;1999.90;999.90;;;2.00;92.10;;;;;;5009995;28;20187;-70
2021/03/20 02:59:58;;;;;;;1999.90;999.90;;;1.90;92.00;;;;;;5001013;28;20053;-70
2021/03/20 03:02:28;;;;;;;1999.90;999.90;;;1.90;92.00;;;;;;5001481;28;20099;-70
2021/03/20 03:05:01;;;;;;;1999.90;999.90;;;1.90;92.10;;;;;;5002809;28;20041;-70
2021/03/20 03:07:32;;;;;;;1999.90;999.90;;;1.90;92.00;;;;;;4992911;28;20048;-69
2021/03/20 03:10:23;;;;;;;1999.90;999.90;;;1.80;91.90;;;;;;4993012;28;20069;-70
2021/03/20 03:12:58;;;;;;;1999.90;999.90;;;1.80;91.90;;;;;;5003500;28;20128;-70
2021/03/20 03:15:31;;;;;;;1999.90;999.90;;;1.70;91.90;;;;;;5026155;28;20047;-70
2021/03/20 03:18:16;;;;;;;1999.90;999.90;;;1.70;91.90;;;;;;5005578;28;20396;-70
2021/03/20 03:20:50;;;;;;;1999.90;999.90;;;1.70;91.90;;;;;;5005988;28;20084;-69
2021/03/20 03:23:32;;;;;;;1999.90;999.90;;;1.70;91.80;;;;;;5006032;28;20049;-70
2021/03/20 03:26:22;;;;;;;1999.90;999.90;;;1.70;91.80;;;;;;5081362;27;20054;-70
2021/03/20 03:28:58;;;;;;;1999.90;999.90;;;1.60;91.70;;;;;;5003150;28;20037;-69
2021/03/20 03:31:32;;;;;;;1999.90;999.90;;;1.60;91.60;;;;;;4999034;28;20050;-70
2021/03/20 03:34:05;;;;;;;1999.90;999.90;;;1.60;91.50;;;;;;5002145;28;20046;-69
2021/03/20 03:36:47;;;;;;;1999.90;999.90;;;1.50;91.50;;;;;;5008705;28;20046;-70
2021/03/20 03:39:37;;;;;;;1999.90;999.90;;;1.50;91.50;;;;;;5000633;28;20084;-69
2021/03/20 03:42:04;;;;;;;1999.90;999.90;;;1.40;91.50;;;;;;5002217;28;20132;-69
2021/03/20 03:44:30;;;;;;;1999.90;999.90;;;1.40;91.50;;;;;;5007140;28;20052;-69
2021/03/20 03:46:57;;;;;;;1999.90;999.90;;;1.30;91.40;;;;;;4996890;28;20045;-69
2021/03/20 03:49:24;;;;;;;1999.90;999.90;;;1.30;91.40;;;;;;5005930;28;20049;-69
2021/03/20 03:51:51;;;;;;;1999.90;999.90;;;1.20;91.40;;;;;;4990134;28;20483;-70
2021/03/20 03:54:17;;;;;;;1999.90;999.90;;;1.20;91.50;;;;;;4989542;28;20045;-69
2021/03/20 03:57:20;;;;;;;1999.90;999.90;;;1.20;91.50;;;;;;5000719;28;20148;-69
2021/03/20 03:59:56;;;;;;;1999.90;999.90;;;1.20;91.50;;;;;;5004446;28;20053;-70
2021/03/20 04:02:38;;;;;;;1999.90;999.90;;;1.10;91.50;;;;;;4997349;28;20065;-70
2021/03/20 04:05:22;;;;;;;1999.90;999.90;;;1.10;91.30;;;;;;4992517;28;20073;-70
2021/03/20 04:07:55;;;;;;;1999.90;999.90;;;1.10;91.20;;;;;;5005074;28;20554;-69
2021/03/20 04:10:43;;;;;;;1999.90;999.90;;;1.10;91.30;;;;;;4984031;28;20050;-69
2021/03/20 04:13:15;;;;;;;1999.90;999.90;;;1.00;91.30;;;;;;4986238;28;20054;-69
2021/03/20 04:16:03;;;;;;;1999.90;999.90;;;1.00;91.20;;;;;;4993456;28;20096;-70
2021/03/20 04:19:00;;;;;;;1999.90;999.90;;;0.90;91.20;;;;;;5012070;28;20077;-70
2021/03/20 04:21:29;;;;;;;1999.90;999.90;;;0.90;91.20;;;;;;5013636;28;20046;-69
2021/03/20 04:24:23;;;;;;;1999.90;999.90;;;0.90;91.20;;;;;;4993289;28;20179;-69
2021/03/20 04:27:02;;;;;;;1999.90;999.90;;;0.90;91.20;;;;;;5009034;28;20042;-69
2021/03/20 04:29:49;;;;;;;1999.90;999.90;;;0.90;91.20;;;;;;4998591;28;20512;-69
2021/03/20 04:32:19;;;;;;;1999.90;999.90;;;0.90;91.20;;;;;;5006599;28;20956;-69
2021/03/20 04:34:54;;;;;;;1999.90;999.90;;;0.80;91.30;;;;;;5010730;28;20053;-69
2021/03/20 04:37:25;;;;;;;1999.90;999.90;;;0.80;91.30;;;;;;5011492;28;20078;-69
2021/03/20 04:39:53;;;;;;;1999.90;999.90;;;0.80;91.20;;;;;;4985892;28;20093;-69
2021/03/20 04:42:24;;;;;;;1999.90;999.90;;;0.80;91.20;;;;;;5010877;28;20064;-69
2021/03/20 04:44:51;;;;;;;1999.90;999.90;;;0.80;91.10;;;;;;4990011;28;20125;-69
2021/03/20 04:47:21;;;;;;;1999.90;999.90;;;0.70;91.00;;;;;;4993066;28;20057;-70
2021/03/20 04:49:57;;;;;;;1999.90;999.90;;;0.70;91.00;;;;;;4993185;28;20368;-69
2021/03/20 04:52:34;;;;;;;1999.90;999.90;;;0.70;91.10;;;;;;5016465;28;20149;-70
2021/03/20 04:55:04;;;;;;;1999.90;999.90;;;0.70;91.00;;;;;;4989495;28;20042;-69
2021/03/20 04:57:42;;;;;;;1999.90;999.90;;;0.60;91.10;;;;;;4989396;28;20050;-69
2021/03/20 05:00:30;;;;;;;1999.90;999.90;;;0.60;91.10;;;;;;4989678;28;20046;-69
2021/03/20 05:03:31;;;;;;;1999.90;999.90;;;0.50;91.00;;;;;;5085280;27;20133;-69
2021/03/20 05:06:05;;;;;;;1999.90;999.90;;;0.50;91.00;;;;;;4996263;28;20064;-70
2021/03/20 05:08:41;;;;;;;1999.90;999.90;;;0.50;91.00;;;;;;4991021;28;20038;-69
2021/03/20 05:11:30;;;;;;;1999.90;999.90;;;0.50;90.90;;;;;;4992187;28;20065;-69
2021/03/20 05:14:12;;;;;;;1999.90;999.90;;;0.50;91.00;;;;;;4999477;28;20123;-69
2021/03/20 05:16:48;;;;;;;1999.90;999.90;;;0.50;91.00;;;;;;4991344;28;20054;-69
2021/03/20 05:19:17;;;;;;;1999.90;999.90;;;0.40;90.90;;;;;;4977289;28;20058;-69
2021/03/20 05:21:46;;;;;;;1999.90;999.90;;;0.40;90.90;;;;;;5001399;28;20149;-69
2021/03/20 05:24:37;;;;;;;1999.90;999.90;;;0.40;90.90;;;;;;4994444;28;20046;-69
2021/03/20 05:27:07;;;;;;;1999.90;999.90;;;0.40;90.90;;;;;;4979377;28;20069;-69
2021/03/20 05:29:34;;;;;;;1999.90;999.90;;;0.40;90.90;;;;;;5000719;28;20066;-70
2021/03/20 05:32:03;;;;;;;1999.90;999.90;;;0.40;90.90;;;;;;4981559;28;20052;-70
2021/03/20 05:34:35;;;;;;;1999.90;999.90;;;0.40;91.00;;;;;;4992593;28;20617;-70
2021/03/20 05:37:02;;;;;;;1999.90;999.90;;;0.40;91.00;;;;;;4990463;28;20054;-69
2021/03/20 05:39:29;;;;;;;1999.90;999.90;;;0.40;91.00;;;;;;5003543;28;20384;-69
2021/03/20 05:42:22;;;;;;;1999.90;999.90;;;0.30;91.10;;;;;;4982656;28;20104;-70
2021/03/20 05:44:53;;;;;;;1999.90;999.90;;;0.30;91.10;;;;;;5003260;28;20070;-70
2021/03/20 05:47:33;;;;;;;1999.90;999.90;;;0.30;91.20;;;;;;5034873;28;20037;-69
2021/03/20 05:50:11;;;;;;;1999.90;999.90;;;0.30;91.20;;;;;;5007084;28;20416;-70
2021/03/20 05:53:06;;;;;;;1999.90;999.90;;;0.30;91.20;;;;;;5089002;27;20408;-70
2021/03/20 05:55:46;;;;;;;1999.90;999.90;;;0.30;91.10;;;;;;5007779;28;20296;-70
2021/03/20 05:58:16;;;;;;;1999.90;999.90;;;0.30;91.10;;;;;;5008998;28;20122;-69
2021/03/20 06:01:13;;;;;;;1999.90;999.90;;;0.30;91.10;;;;;;5009920;28;20046;-70
2021/03/20 06:03:49;;;;;;;1999.90;999.90;;;0.30;91.10;;;;;;5001244;28;20050;-69
2021/03/20 06:06:21;;;;;;;1999.90;999.90;;;0.30;91.10;;;;;;5005819;28;20716;-70
2021/03/20 06:09:19;;;;;;;1999.90;999.90;;;0.30;91.10;;;;;;5006476;28;20468;-69
2021/03/20 06:11:45;;;;;;;1999.90;999.90;;;0.30;91.20;;;;;;5007089;28;20058;-69
2021/03/20 06:14:34;;;;;;;1999.90;999.90;;;0.40;91.30;;;;;;4999686;28;20064;-70
2021/03/20 06:17:53;;;;;;;1999.90;999.90;;;0.40;91.40;;;;;;5003968;28;20136;-69
2021/03/20 06:20:36;;;;;;;1999.90;999.90;;;0.50;91.50;;;;;;4987478;28;20061;-70
2021/03/20 06:23:22;;;;;;;1999.90;999.90;;;0.60;91.70;;;;;;4981511;28;20144;-69
2021/03/20 06:26:04;;;;;;;1999.90;999.90;;;0.70;91.90;;;;;;5066364;28;20041;-69
2021/03/20 06:28:56;;;;;;;1999.90;999.90;;;0.80;92.00;;;;;;4994444;28;20048;-70
2021/03/20 06:31:41;;;;;;;1999.90;999.90;;;1.00;92.20;;;;;;5004067;28;20440;-70
2021/03/20 06:34:27;;;;;;;1999.90;999.90;;;1.00;92.20;;;;;;4987776;28;20469;-70
2021/03/20 06:36:59;;;;;;;1999.90;999.90;;;1.20;92.40;;;;;;5003078;28;20138;-70
2021/03/20 06:39:31;;;;;;;1999.90;999.90;;;1.20;92.40;;;;;;5001547;28;20060;-70
2021/03/20 06:42:29;;;;;;;1999.90;999.90;;;1.30;92.50;;;;;;4990263;28;20053;-70
2021/03/20 06:45:24;;;;;;;1999.90;999.90;;;1.40;92.70;;;;;;4973462;28;22492;-70
2021/03/20 06:47:54;;;;;;;1999.90;999.90;;;1.50;92.80;;;;;;4990893;28;21013;-70
2021/03/20 06:50:26;;;;;;;1999.90;999.90;;;1.60;93.00;;;;;;5006793;28;20124;-70
2021/03/20 06:53:01;;;;;;;1999.90;999.90;;;1.70;93.10;;;;;;4998775;28;20053;-70
2021/03/20 06:55:48;;;;;;;1999.90;999.90;;;1.80;93.20;;;;;;4996036;28;20053;-70
2021/03/20 06:58:18;;;;;;;1999.90;999.90;;;1.90;93.30;;;;;;4988844;28;20163;-70
2021/03/20 07:00:44;;;;;;;;;;;1.90;93.50;;;;;;5004528;28;20052;-70
2021/03/20 07:03:10;;;;;;;1999.90;999.90;;;2.00;93.90;;;;;;4992560;28;19933;-71
2021/03/20 07:06:14;;;;;;;1999.90;999.90;;;2.10;93.50;;;;;;5002287;28;20173;-70
2021/03/20 07:08:54;;;;;;;1999.90;999.90;;;2.20;93.60;;;;;;4979410;28;20745;-70
2021/03/20 07:11:29;;;;;;;1999.90;999.90;;;2.40;93.80;;;;;;4996532;28;20045;-70
2021/03/20 07:14:54;;;;;;;1999.90;999.90;;;2.50;94.00;;;;;;4993780;28;20137;-70
2021/03/20 07:17:23;;;;;;;1999.90;999.90;;;2.70;94.10;;;;;;5004559;28;20124;-70
2021/03/20 07:19:59;;;;;;;1999.90;999.90;;;2.80;94.20;;;;;;4999964;28;20328;-70
2021/03/20 07:22:40;;;;;;;1999.90;999.90;;;2.90;94.30;;;;;;5010306;28;20050;-70
2021/03/20 07:25:54;;;;;;;1999.90;999.90;;;3.00;94.40;;;;;;5012926;28;20497;-71
2021/03/20 07:28:24;;;;;;;1999.90;999.90;;;3.10;94.50;;;;;;5006100;28;20045;-70
2021/03/20 07:31:10;;;;;;;1999.90;999.90;;;3.10;94.60;;;;;;5006716;28;20054;-70
2021/03/20 07:33:43;;;;;;;1999.90;999.90;;;3.20;94.60;;;;;;5004740;28;20132;-70
2021/03/20 07:36:15;;;;;;;1999.90;999.90;;;3.30;94.70;;;;;;5008527;28;20061;-70
2021/03/20 07:38:43;;;;;;;1999.90;999.90;;;3.30;94.70;;;;;;5006051;28;20056;-70
2021/03/20 07:41:13;;;;;;;1999.90;999.90;;;3.40;94.80;;;;;;4993560;28;20717;-70
2021/03/20 07:43:40;;;;;;;1999.90;999.90;;;3.50;94.90;;;;;;5012949;28;20374;-70
2021/03/20 07:46:16;;;;;;;1999.90;999.90;;;3.60;95.00;;;;;;4990393;28;20057;-71
2021/03/20 07:48:44;;;;;;;1999.90;999.90;;;3.60;95.00;;;;;;5006629;28;20038;-71
2021/03/20 07:51:14;;;;;;;1999.90;999.90;;;3.70;95.10;;;;;;5082485;27;20127;-70
2021/03/20 07:53:51;;;;;;;1999.90;999.90;;;3.70;95.10;;;;;;4985759;28;20389;-70
2021/03/20 07:56:29;;;;;;;1999.90;999.90;;;3.80;95.10;;;;;;5007061;28;20038;-71
2021/03/20 07:59:13;;;;;;;1999.90;999.90;;;3.80;95.20;;;;;;5080057;28;20042;-71
2021/03/20 08:01:40;;;;;;;1999.90;999.90;;;3.90;95.20;;;;;;5006364;28;20051;-71
2021/03/20 08:04:09;;;;;;;1999.90;999.90;;;4.00;95.40;;;;;;4994341;28;20568;-70
2021/03/20 08:06:37;;;;;;;1999.90;999.90;;;4.00;95.40;;;;;;5004484;28;20053;-70
2021/03/20 08:09:22;;;;;;;1999.90;999.90;;;4.10;95.40;;;;;;5005123;28;20487;-71
2021/03/20 08:12:05;;;;;;;1999.90;999.90;;;4.10;95.50;;;;;;5014540;28;20115;-71
2021/03/20 08:14:51;;;;;;;1999.90;999.90;;;4.20;95.60;;;;;;5014283;28;20051;-70
2021/03/20 08:17:19;;;;;;;1999.90;999.90;;;4.30;95.80;;;;;;4986444;28;20407;-71
2021/03/20 08:19:47;;;;;;;1999.90;999.90;;;4.30;95.80;;;;;;5015263;28;20057;-70
2021/03/20 08:22:34;;;;;;;1999.90;999.90;;;4.40;95.70;;;;;;4994136;28;20381;-70
2021/03/20 08:25:10;;;;;;;1999.90;999.90;;;4.40;95.80;;;;;;5006404;28;20038;-71
2021/03/20 08:27:39;;;;;;;1999.90;999.90;;;4.50;95.90;;;;;;5002707;28;20490;-70
2021/03/20 08:30:05;;;;;;;;;;;4.60;96.00;;;;;;4995586;28;20467;-70
2021/03/20 08:32:48;;;;;;;1999.90;999.90;;;4.70;96.20;;;;;;5005225;28;20276;-70
2021/03/20 08:35:34;;;;;;;1999.90;999.90;;;4.80;96.10;;;;;;4997419;28;20129;-70
2021/03/20 08:38:18;;;;;;;1999.90;999.90;;;4.80;96.10;;;;;;5012192;28;20057;-71
2021/03/20 08:41:00;;;;;;;1999.90;999.90;;;4.90;96.20;;;;;;5008320;28;20058;-70
2021/03/20 08:43:55;;;;;;;1999.90;999.90;;;5.00;96.20;;;;;;5000932;28;20050;-70
2021/03/20 08:46:39;;;;;;;1999.90;999.90;;;5.10;96.20;;;;;;4999312;28;20121;-71
2021/03/20 08:49:15;;;;;;;1999.90;999.90;;;5.20;96.20;;;;;;4992472;28;20085;-70
2021/03/20 08:51:54;;;;;;;1999.90;999.90;;;5.30;96.00;;;;;;5001516;28;20638;-71
2021/03/20 08:54:48;;;;;;;1999.90;999.90;;;5.30;96.20;;;;;;4990761;28;20390;-71
2021/03/20 08:57:35;;;;;;;1999.90;999.90;;;5.40;96.30;;;;;;4990396;28;20044;-71
2021/03/20 09:00:19;;;;;;;1999.90;999.90;;;5.40;96.30;;;;;;5005868;28;20541;-71
2021/03/20 09:02:48;;;;;;;1999.90;999.90;;;5.50;96.30;;;;;;5009833;28;20156;-70
2021/03/20 09:05:20;;;;;;;1999.90;999.90;;;5.60;96.30;;;;;;4991531;28;20050;-70
2021/03/20 09:07:54;;;;;;;1999.90;999.90;;;5.70;96.30;;;;;;4993494;28;20046;-71
2021/03/20 09:10:33;;;;;;;1999.90;999.90;;;5.80;96.20;;;;;;5008946;28;20520;-71
2021/03/20 09:13:25;;;;;;;1999.90;999.90;;;5.90;96.00;;;;;;5012162;28;20124;-71
2021/03/20 09:16:05;;;;;;;1999.90;999.90;;;5.90;95.90;;;;;;5007208;28;20056;-70
2021/03/20 09:18:33;;;;;;;1999.90;999.90;;;6.20;96.00;;;;;;5001575;28;20042;-70
2021/03/20 09:21:05;;;;;;;1999.90;999.90;;;6.30;95.90;;;;;;5006218;28;20555;-71
2021/03/20 09:23:37;;;;;;;1999.90;999.90;;;6.50;95.60;;;;;;4989881;28;20069;-71
2021/03/20 09:26:07;;;;;;;1999.90;999.90;;;6.60;95.50;;;;;;5012030;28;20041;-71
2021/03/20 09:28:51;;;;;;;1999.90;999.90;;;6.70;95.40;;;;;;5008062;28;20125;-71
2021/03/20 09:31:30;;;;;;;1999.90;999.90;;;6.70;95.20;;;;;;5094191;27;20046;-71
2021/03/20 09:34:02;;;;;;;1999.90;999.90;;;6.90;95.30;;;;;;4990653;28;20435;-71
2021/03/20 09:36:28;;;;;;;1999.90;999.90;;;7.00;95.10;;;;;;5010029;28;20050;-71
2021/03/20 09:38:56;;;;;;;1999.90;999.90;;;7.10;94.70;;;;;;4993102;28;20046;-71
2021/03/20 09:41:28;;;;;;;1999.90;999.90;;;7.10;94.50;;;;;;5007970;28;20107;-71
2021/03/20 09:43:54;;;;;;;1999.90;999.90;;;7.30;94.80;;;;;;5006968;28;20077;-70
2021/03/20 09:46:39;;;;;;;1999.90;999.90;;;7.40;94.40;;;;;;5001023;28;20038;-71
2021/03/20 09:49:06;;;;;;;1999.90;999.90;;;7.40;93.40;;;;;;5091366;27;20081;-71
2021/03/20 09:51:48;;;;;;;1999.90;999.90;;;7.40;93.60;;;;;;5006549;28;20054;-71
2021/03/20 09:54:24;;;;;;;1999.90;999.90;;;7.50;93.30;;;;;;4987266;28;20416;-71
2021/03/20 09:57:40;;;;;;;1999.90;999.90;;;7.60;92.70;;;;;;4984585;28;20404;-70
2021/03/20 09:59:59;;;;;;;1999.90;999.90;;;7.70;93.50;;;;;;5005550;28;20052;-71
2021/03/20 10:02:27;;;;;;;1999.90;999.90;;;7.80;93.50;;;;;;5012313;28;20424;-71
2021/03/20 10:04:59;;;;;;;1999.90;999.90;;;7.90;92.70;;;;;;5007619;28;20277;-71
2021/03/20 10:07:31;;;;;;;1999.90;999.90;;;8.10;92.90;;;;;;4987985;28;20459;-71
2021/03/20 10:10:14;;;;;;;1999.90;999.90;;;8.30;93.70;;;;;;5005661;28;20132;-71
2021/03/20 10:12:44;;;;;;;1999.90;999.90;;;8.60;94.50;;;;;;5018674;28;20042;-71
2021/03/20 10:15:20;;;;;;;1999.90;999.90;;;8.80;94.20;;;;;;5004955;28;20125;-71
2021/03/20 10:18:05;;;;;;;1999.90;999.90;;;9.00;95.40;;;;;;4986714;28;20072;-71
2021/03/20 10:20:48;;;;;;;1999.90;999.90;;;9.30;96.60;;;;;;5006010;28;20046;-71
2021/03/20 10:23:38;;;;;;;1999.90;999.90;;;9.50;98.20;;;;;;5003648;28;20046;-71
2021/03/20 10:26:18;;;;;;;1999.90;999.90;;;9.80;98.50;;;;;;5014481;28;20042;-71
2021/03/20 10:28:52;;;;;;;1999.90;999.90;;;10.00;98.70;;;;;;4998792;28;20049;-71
2021/03/20 10:31:18;;;;;;;1999.90;999.90;;;10.20;99.90;;;;;;4991243;28;20055;-71
2021/03/20 10:33:47;;;;;;;1999.90;999.90;;;10.40;99.90;;;;;;5084493;27;20472;-71
2021/03/20 10:36:21;;;;;;;1999.90;999.90;;;10.60;99.90;;;;;;4985502;28;20060;-71
2021/03/20 10:39:31;;;;;;;1999.90;999.90;;;10.80;99.90;;;;;;4999455;28;20042;-71
2021/03/20 10:42:15;;;;;;;1999.90;999.90;;;11.00;99.90;;;;;;4993420;28;20516;-71
2021/03/20 10:44:44;;;;;;;1999.90;999.90;;;10.90;99.90;;;;;;5005303;28;20130;-72
2021/03/20 10:47:25;;;;;;;1999.90;999.90;;;10.80;99.90;;;;;;5010060;28;20272;-71
2021/03/20 10:50:12;;;;;;;1999.90;999.90;;;10.80;99.90;;;;;;4992262;28;20061;-71
2021/03/20 10:52:41;;;;;;;1999.90;999.90;;;10.80;99.90;;;;;;5032963;28;20077;-71
2021/03/20 10:55:16;;;;;;;;;;;11.00;99.90;;;;;;5005395;28;20058;-71
2021/03/20 10:57:43;;;;;;;1999.90;999.90;;;11.00;93.00;;;;;;5086893;27;20063;-71
2021/03/20 11:00:52;;;;;;;1999.90;999.90;;;11.00;99.90;;;;;;5004976;28;20076;-71
2021/03/20 11:03:22;;;;;;;1999.90;999.90;;;11.00;99.90;;;;;;5015500;28;20038;-71
2021/03/20 11:05:49;;;;;;;1999.90;999.90;;;11.10;99.90;;;;;;5005782;28;20547;-71
2021/03/20 11:08:18;;;;;;;1999.90;999.90;;;11.30;99.90;;;;;;4987192;28;20071;-71
2021/03/20 11:10:48;;;;;;;1999.90;999.90;;;11.50;99.90;;;;;;5006187;28;20488;-71
2021/03/20 11:13:17;;;;;;;1999.90;999.90;;;11.60;99.90;;;;;;5005704;28;20053;-71
2021/03/20 11:15:44;;;;;;;;;;;11.80;99.90;;;;;;5003203;28;20918;-71
2021/03/20 11:18:19;;;;;;;1999.90;999.90;;;11.90;94.20;;;;;;5007426;28;19956;-71
2021/03/20 11:20:46;;;;;;;1999.90;999.90;;;11.90;99.90;;;;;;4990216;28;20357;-72
2021/03/20 11:23:31;;;;;;;1999.90;999.90;;;12.10;99.90;;;;;;5009951;28;20125;-71
2021/03/20 11:26:10;;;;;;;1999.90;999.90;;;12.40;99.90;;;;;;4991239;28;20042;-71
2021/03/20 11:28:37;;;;;;;1999.90;999.90;;;12.60;99.90;;;;;;5012775;28;20086;-72
2021/03/20 11:31:05;;;;;;;1999.90;999.90;;;12.50;99.90;;;;;;5004733;28;20052;-71
2021/03/20 11:44:59;;;;;;;1999.90;999.90;;;12.90;99.90;;;;;;4987258;28;20421;-71
2021/03/20 11:47:32;;;;;;;1999.90;999.90;;;13.10;99.90;;;;;;4990287;28;20053;-72
2021/03/20 11:50:01;;;;;;;1999.90;999.90;;;13.10;99.90;;;;;;5003520;28;20592;-72
2021/03/20 11:52:48;;;;;;;1999.90;999.90;;;13.00;99.90;;;;;;5001339;28;20069;-71
2021/03/20 11:55:34;;;;;;;1999.90;999.90;;;13.00;99.90;;;;;;5003244;28;20130;-71
2021/03/20 11:58:05;;;;;;;1999.90;999.90;;;13.00;99.50;;;;;;4991992;28;20061;-72
2021/03/20 12:00:35;;;;;;;1999.90;999.90;;;13.20;99.90;;;;;;5006612;28;20465;-71
2021/03/20 12:06:43;;;;;;;1999.90;999.90;;;13.50;99.90;;;;;;5005035;28;20110;-71
2021/03/20 12:09:21;;;;;;;1999.90;999.90;;;13.50;99.90;;;;;;5004385;28;20046;-72
2021/03/20 12:11:47;;;;;;;1999.90;999.90;;;13.80;99.90;;;;;;5000907;28;20133;-72
2021/03/20 12:14:37;;;;;;;1999.90;999.90;;;14.00;99.90;;;;;;5016871;28;20049;-71
2021/03/20 12:17:04;;;;;;;1999.90;999.90;;;14.10;99.90;;;;;;4997704;28;20046;-72
2021/03/20 12:19:33;;;;;;;1999.90;999.90;;;14.00;99.90;;;;;;5015181;28;20481;-72
2021/03/20 12:22:04;;;;;;;1999.90;999.90;;;13.90;99.90;;;;;;4995609;28;20073;-71
2021/03/20 12:24:35;;;;;;;1999.90;999.90;;;13.70;99.40;;;;;;5013192;28;20082;-72
2021/03/20 12:27:29;;;;;;;1999.90;999.90;;;13.50;98.10;;;;;;5002356;28;20077;-71
2021/03/20 12:30:19;;;;;;;1999.90;999.90;;;13.40;98.20;;;;;;5009517;28;20565;-71
2021/03/20 12:32:48;;;;;;;1999.90;999.90;;;13.30;97.80;;;;;;4989856;28;20099;-71
2021/03/20 12:35:18;;;;;;;1999.90;999.90;;;13.30;99.80;;;;;;5008167;28;20062;-71
2021/03/20 12:38:12;;;;;;;1999.90;999.90;;;13.20;98.80;;;;;;5011264;28;20091;-72
2021/03/20 12:40:47;;;;;;;1999.90;999.90;;;13.10;96.50;;;;;;5009153;28;20050;-71
2021/03/20 12:43:22;;;;;;;1999.90;999.90;;;13.00;94.90;;;;;;4992205;28;20042;-72
2021/03/20 12:45:49;;;;;;;1999.90;999.90;;;12.90;94.90;;;;;;4992330;28;20133;-71
2021/03/20 12:48:17;;;;;;;1999.90;999.90;;;12.70;94.50;;;;;;5007384;28;20053;-71
2021/03/20 12:50:45;;;;;;;1999.90;999.90;;;12.50;93.70;;;;;;5011287;28;20084;-72
2021/03/20 12:53:11;;;;;;;1999.90;999.90;;;12.30;93.30;;;;;;5008796;28;20571;-71
2021/03/20 12:55:37;;;;;;;1999.90;999.90;;;12.20;93.40;;;;;;5007131;28;20082;-71
2021/03/20 12:58:04;;;;;;;1999.90;999.90;;;12.10;93.90;;;;;;5016205;28;20505;-72
2021/03/20 13:00:31;;;;;;;1999.90;999.90;;;12.20;93.10;;;;;;5012135;28;20049;-71
2021/03/20 13:02:59;;;;;;;1999.90;999.90;;;12.20;92.80;;;;;;5011129;28;20041;-72
2021/03/20 13:05:38;;;;;;;1999.90;999.90;;;12.30;92.40;;;;;;5006034;28;20044;-71
2021/03/20 13:08:06;;;;;;;1999.90;999.90;;;12.40;92.50;;;;;;5010543;28;20038;-71